LERSLELL

Guest
Details From LERS - Reus
To LELL - Sabadell
Flight Number -
Tags Generated
Created
Modified
Stats Distance 48 nm / 90 km
Max Altitude 0 ft / 0 m
Waypoints 2
Social Downloads 2
Likes 0
Share VATSIM

Download

Looking for another format? Having issues loading an existing format? Contact us
Advertisement - Login to hide

Notes

Generated

Route

LERS LELL

ID Type Via Altitude Latitude Longitude Leg Dist Tot Dist Heading (true) Name
O LERS APT - 0 ft / 0 m 41.14306˚ 1.15458˚ - 0 nm - -
O LELL APT - 0 ft / 0 m 41.52445˚ 2.09912˚ 48 nm 48 nm 61° / 62° Sabadell

Altitude Profile

Advertisement - Login to hide

LERS

Details ICAO LERS (REU)
Name Reus
Region Spain
Timezone Europe/Madrid (UTC+1.0)
Stats Elevation 0 ft / 0 m (AMSL)
Location 41.144615° 1.165505°
Runways 2
Magnetic Variation 0.590° E

METAR

LERS 132230Z AUTO 22011G23KT 160V270 9999 NCD 14/04 Q1019

Decode

TAF

TAF LERS 132000Z 1321/1421 24009KT 9999 FEW040 TX18/1409Z TN08/1406Z PROB30 TEMPO 1321/1406 31015G25KT PROB30 TEMPO 1412/1415 27010G20KT

Decode

Departure Runways

ID Width Length Bearing (true) Bearing (mag) Surface Threshold Offset Overrun Length
12 115 ft / 35 m 3,120 ft / 951 m 290.95° 290.36° Grass 0 ft / 0 m 0 ft / 0 m
25 148 ft / 45 m 8,062 ft / 2,457 m 248.91° 248.32° Asphalt 0 ft / 0 m 0 ft / 0 m
30 115 ft / 35 m 3,120 ft / 951 m 110.95° 110.36° Grass 0 ft / 0 m 0 ft / 0 m
7 148 ft / 45 m 8,062 ft / 2,457 m 68.89° 68.30° Asphalt 883 ft / 269 m 0 ft / 0 m

LELL

Details ICAO LELL (QSA)
Name Sabadell
Region Spain
Timezone Europe/Madrid (UTC+1.0)
Stats Elevation 465 ft / 142 m (AMSL)
Location 41.520977° 2.104912°
Runways 1
Magnetic Variation 0.820° E

METAR

LELL 132230Z AUTO 26009KT 230V290 CAVOK 09/02 Q1019

Decode

TAF

TAF LELL 131400Z 1315/1415 27008KT 9999 SCT040 TX15/1409Z TN05/1406Z PROB30 TEMPO 1315/1318 27008G18KT PROB30 TEMPO 1412/1415 27008G18KT

Decode

Destination Runways

ID Width Length Bearing (true) Bearing (mag) Surface Threshold Offset Overrun Length
13 98 ft / 30 m 2,956 ft / 901 m 127.50° 126.68° Asphalt 0 ft / 0 m 0 ft / 0 m
31 98 ft / 30 m 2,956 ft / 901 m 307.50° 306.68° Asphalt 0 ft / 0 m 0 ft / 0 m

Popular Alternatives